createdAt,value
2023-03-16T00:00:13.938Z,60558.66
2023-03-16T00:02:42.663Z,60558.66
2023-03-16T00:05:12.869Z,60534.44
2023-03-16T00:07:43.489Z,60538.72
2023-03-16T00:10:13.733Z,60544.31
2023-03-16T00:12:43.784Z,60547.22
2023-03-16T00:15:13.203Z,60535.94
2023-03-16T00:17:41.726Z,60542.16
2023-03-16T00:20:12.479Z,60540.97
2023-03-16T00:22:41.921Z,60534.88
2023-03-16T00:25:15.283Z,60534.88
2023-03-16T00:27:43.677Z,60541.66
2023-03-16T00:30:14.107Z,60523.81
2023-03-16T00:32:42.903Z,60531.78
2023-03-16T00:35:11.444Z,60527.28
2023-03-16T00:37:40.029Z,60525.28
2023-03-16T00:40:13.674Z,60530.88
2023-03-16T00:42:42.040Z,60525.28
2023-03-16T00:45:12.123Z,60506.81
2023-03-16T00:47:42.204Z,60516.25
2023-03-16T00:50:11.851Z,60518.91
2023-03-16T00:52:40.261Z,60518.91
2023-03-16T00:55:09.525Z,60513.19
2023-03-16T00:57:39.464Z,60508.81
2023-03-16T01:00:15.146Z,60506.16
2023-03-16T01:02:45.311Z,60512.25
2023-03-16T01:05:15.453Z,60511.47
2023-03-16T01:07:45.221Z,60501.34
2023-03-16T01:10:14.538Z,60503.63
2023-03-16T01:12:45.376Z,60503.50
2023-03-16T01:15:13.850Z,60496.97
2023-03-16T01:17:42.218Z,60500.69
2023-03-16T01:20:15.559Z,60489.13
2023-03-16T01:22:44.306Z,60492.97
2023-03-16T01:25:14.718Z,60494.59
2023-03-16T01:27:44.906Z,60495.66
2023-03-16T01:30:14.306Z,60499.34
2023-03-16T01:32:43.385Z,60487.56
2023-03-16T01:35:14.815Z,60497.25
2023-03-16T01:37:43.223Z,60493.41
2023-03-16T01:40:17.298Z,60496.97
2023-03-16T01:43:01.552Z,60473.84
2023-03-16T01:46:18.245Z,60483.41
2023-03-16T01:49:13.385Z,60483.41
2023-03-16T01:51:45.421Z,60474.91
2023-03-16T01:54:23.157Z,60458.31
2023-03-16T01:57:00.798Z,60475.44
2023-03-16T01:59:35.020Z,60475.97
2023-03-16T02:02:04.747Z,60477.44
2023-03-16T02:04:46.744Z,60481.72
2023-03-16T02:07:20.719Z,60480.75
2023-03-16T02:09:54.016Z,60469.59
2023-03-16T02:12:23.260Z,60463.88
2023-03-16T02:14:58.035Z,60461.91
2023-03-16T02:17:29.802Z,60471.59
2023-03-16T02:20:16.813Z,60471.06
2023-03-16T02:22:49.745Z,60471.06
2023-03-16T02:25:20.535Z,60470.69
2023-03-16T02:27:59.202Z,60454.59
2023-03-16T02:30:29.763Z,60459.38
2023-03-16T02:33:02.621Z,60464.03
2023-03-16T02:35:31.281Z,60460.44
2023-03-16T02:38:00.167Z,60445.97
2023-03-16T02:40:35.692Z,60424.56
2023-03-16T02:43:12.511Z,60417.41
2023-03-16T02:45:52.259Z,60428.44
2023-03-16T02:48:27.784Z,60420.75
2023-03-16T02:50:56.626Z,60421.78
2023-03-16T02:53:25.442Z,60434.81
2023-03-16T02:55:54.206Z,60443.84
2023-03-16T02:58:22.572Z,60437.72
2023-03-16T03:00:52.384Z,60442.78
2023-03-16T03:03:20.862Z,60450.75
2023-03-16T03:05:49.448Z,60443.16
2023-03-16T03:08:20.391Z,60445.97
2023-03-16T03:10:49.197Z,60443.56
2023-03-16T03:13:17.668Z,60438.53
2023-03-16T03:15:46.394Z,60427.09
2023-03-16T03:18:16.264Z,60422.44
2023-03-16T03:20:44.622Z,60432.28
2023-03-16T03:23:12.998Z,60428.56
2023-03-16T03:25:43.115Z,60419.66
2023-03-16T03:28:12.079Z,60432.81
2023-03-16T03:30:40.773Z,60438.53
2023-03-16T03:33:09.329Z,60431.22
2023-03-16T03:35:39.111Z,60427.63
2023-03-16T03:38:08.170Z,60413.03
2023-03-16T03:40:37.418Z,60409.84
2023-03-16T03:43:06.477Z,60405.22
2023-03-16T03:45:39.439Z,60395.75
2023-03-16T03:48:08.350Z,60404.94
2023-03-16T03:50:40.580Z,60411.97
2023-03-16T03:53:23.730Z,60421.00
2023-03-16T03:56:12.013Z,60422.59
2023-03-16T03:58:41.009Z,60404.78
2023-03-16T04:01:09.732Z,60411.84
2023-03-16T04:03:38.165Z,60408.38
2023-03-16T04:06:10.181Z,60416.47
2023-03-16T04:08:38.531Z,60413.69
2023-03-16T04:11:11.941Z,60416.63
2023-03-16T04:13:41.314Z,60404.53
2023-03-16T04:16:11.266Z,60402.69
2023-03-16T04:18:46.596Z,60400.56
2023-03-16T04:21:18.735Z,60421.13
2023-03-16T04:23:49.082Z,60419.66
2023-03-16T04:26:18.061Z,60416.06
2023-03-16T04:28:48.884Z,60423.78
2023-03-16T04:31:20.351Z,60413.69
2023-03-16T04:33:49.706Z,60414.91
2023-03-16T04:36:19.825Z,60410.09
2023-03-16T04:38:49.141Z,60419.41
2023-03-16T04:41:17.769Z,60422.84
2023-03-16T04:43:55.153Z,60425.78
2023-03-16T04:46:26.841Z,60426.31
2023-03-16T04:48:58.463Z,60422.59
2023-03-16T04:51:30.094Z,60409.97
2023-03-16T04:54:06.844Z,60409.31
2023-03-16T04:56:37.483Z,60403.59
2023-03-16T04:59:10.980Z,60407.97
2023-03-16T05:02:08.775Z,60413.03
2023-03-16T05:04:38.564Z,60414.38
2023-03-16T05:07:11.731Z,60425.25
2023-03-16T05:09:44.052Z,60421.78
2023-03-16T05:12:13.083Z,60423.66
2023-03-16T05:14:41.818Z,60419.13
2023-03-16T05:17:30.476Z,60411.16
2023-03-16T05:19:58.818Z,60410.09
2023-03-16T05:22:29.564Z,60411.97
2023-03-16T05:25:15.482Z,60405.72
2023-03-16T05:27:49.761Z,60409.97
2023-03-16T05:30:25.262Z,60409.44
2023-03-16T05:32:57.913Z,60421.53
2023-03-16T05:35:28.154Z,60419.66
2023-03-16T05:38:02.688Z,60415.41
2023-03-16T05:40:33.178Z,60419.13
2023-03-16T05:43:18.427Z,60415.16
2023-03-16T05:45:51.624Z,60403.06
2023-03-16T05:48:21.432Z,60404.25
2023-03-16T05:50:55.577Z,60419.00
2023-03-16T05:53:30.287Z,60414.91
2023-03-16T05:56:07.289Z,60404.78
2023-03-16T05:58:40.057Z,60408.91
2023-03-16T06:01:11.248Z,60421.66
2023-03-16T06:03:39.880Z,60415.16
2023-03-16T06:06:10.392Z,60428.44
2023-03-16T06:08:51.229Z,60420.47
2023-03-16T06:11:21.614Z,60411.16
2023-03-16T06:13:50.110Z,60411.72
2023-03-16T06:16:19.038Z,60420.75
2023-03-16T06:18:47.453Z,60428.44
2023-03-16T06:21:15.911Z,60427.09
2023-03-16T06:23:44.536Z,60431.75
2023-03-16T06:26:14.941Z,60428.16
2023-03-16T06:28:45.919Z,60430.69
2023-03-16T06:31:14.301Z,60431.88
2023-03-16T06:33:45.953Z,60442.38
2023-03-16T06:36:15.069Z,60446.63
2023-03-16T06:38:48.371Z,60459.25
2023-03-16T06:41:26.143Z,60456.97
2023-03-16T06:43:54.496Z,60469.47
2023-03-16T06:46:22.952Z,60471.72
2023-03-16T06:48:51.750Z,60488.75
2023-03-16T06:51:20.966Z,60490.88
2023-03-16T06:53:51.226Z,60489.78
2023-03-16T06:56:20.204Z,60502.44
2023-03-16T06:58:50.304Z,60511.34
2023-03-16T07:01:18.771Z,60522.09
2023-03-16T07:03:47.303Z,60528.06
2023-03-16T07:06:21.413Z,60538.72
2023-03-16T07:08:49.758Z,60562.00
2023-03-16T07:11:19.972Z,60577.00
2023-03-16T07:13:49.784Z,60596.56
2023-03-16T07:16:20.393Z,60605.50
2023-03-16T07:18:49.514Z,60617.72
2023-03-16T07:21:20.658Z,60620.66
2023-03-16T07:23:50.020Z,60632.88
2023-03-16T07:26:23.221Z,60651.50
2023-03-16T07:28:59.312Z,60665.34
2023-03-16T07:31:28.169Z,60668.03
2023-03-16T07:33:59.032Z,60682.69
2023-03-16T07:36:38.407Z,60687.72
2023-03-16T07:39:07.470Z,60705.59
2023-03-16T07:41:36.892Z,60708.47
2023-03-16T07:44:21.816Z,60725.28
2023-03-16T07:46:51.581Z,60752.47
2023-03-16T07:49:21.861Z,60752.59
2023-03-16T07:51:51.469Z,60773.25
2023-03-16T07:54:24.375Z,60804.69
2023-03-16T07:56:52.928Z,60802.72
2023-03-16T07:59:32.466Z,60816.03
2023-03-16T08:02:01.821Z,60824.97
2023-03-16T08:04:31.228Z,60823.91
2023-03-16T08:07:02.273Z,60822.03
2023-03-16T08:09:44.385Z,60868.44
2023-03-16T08:12:16.979Z,60969.06
2023-03-16T08:14:46.905Z,61047.06
2023-03-16T08:17:22.674Z,61087.06
2023-03-16T08:19:51.621Z,61098.00
2023-03-16T08:22:22.173Z,61096.28
2023-03-16T08:24:51.985Z,61150.81
2023-03-16T08:27:22.156Z,61158.03
2023-03-16T08:29:56.806Z,61213.03
2023-03-16T08:32:28.476Z,61216.78
2023-03-16T08:34:57.197Z,61252.66
2023-03-16T08:37:25.665Z,61297.75
2023-03-16T08:39:55.645Z,61336.78
2023-03-16T08:42:25.333Z,61357.81
2023-03-16T08:45:01.068Z,61436.53
2023-03-16T08:47:31.459Z,61452.06
2023-03-16T08:50:01.209Z,61436.81
2023-03-16T08:52:29.547Z,61430.91
2023-03-16T08:55:03.406Z,61449.38
2023-03-16T08:57:32.856Z,61438.00
2023-03-16T09:00:04.226Z,61510.47
2023-03-16T09:02:33.204Z,61417.09
2023-03-16T09:05:01.572Z,61333.31
2023-03-16T09:07:29.932Z,61338.50
2023-03-16T09:09:58.355Z,61370.41
2023-03-16T09:12:27.227Z,61426.31
2023-03-16T09:14:56.130Z,61474.50
2023-03-16T09:17:25.978Z,61510.03
2023-03-16T09:19:57.731Z,61498.09
2023-03-16T09:22:31.542Z,61533.13
2023-03-16T09:25:00.153Z,61575.88
2023-03-16T09:27:28.561Z,61584.03
2023-03-16T09:29:57.348Z,61591.97
2023-03-16T09:32:27.735Z,61544.84
2023-03-16T09:34:56.357Z,61541.06
2023-03-16T09:37:24.844Z,61572.09
2023-03-16T09:39:57.930Z,61600.59
2023-03-16T09:42:36.791Z,61603.91
2023-03-16T09:45:16.190Z,61598.66
2023-03-16T09:47:49.667Z,61520.66
2023-03-16T09:50:24.399Z,61345.34
2023-03-16T09:53:02.792Z,61364.44
2023-03-16T09:55:34.752Z,61376.31
2023-03-16T09:58:08.025Z,61418.69
2023-03-16T10:00:41.753Z,61402.59
2023-03-16T10:03:32.554Z,61404.22
2023-03-16T10:06:05.156Z,61473.41
2023-03-16T10:08:40.857Z,61523.34
2023-03-16T10:11:26.998Z,61484.28
2023-03-16T10:14:02.554Z,61486.72
2023-03-16T10:16:38.685Z,61507.25
2023-03-16T10:19:17.285Z,61513.69
2023-03-16T10:21:45.812Z,61550.31
2023-03-16T10:24:27.248Z,61586.19
2023-03-16T10:27:00.560Z,61605.97
2023-03-16T10:29:31.845Z,61579.31
2023-03-16T10:32:09.823Z,61613.47
2023-03-16T10:34:39.674Z,61564.72
2023-03-16T10:37:11.930Z,61495.97
2023-03-16T10:39:43.199Z,61468.81
2023-03-16T10:42:18.658Z,61444.03
2023-03-16T10:44:47.277Z,61476.50
2023-03-16T10:47:24.155Z,61482.00
2023-03-16T10:49:53.977Z,61420.84
2023-03-16T10:52:31.239Z,61447.66
2023-03-16T10:55:02.179Z,61407.13
2023-03-16T10:57:34.947Z,61437.59
2023-03-16T11:00:14.753Z,61498.88
2023-03-16T11:02:44.431Z,61518.94
2023-03-16T11:05:21.416Z,61552.34
2023-03-16T11:07:50.960Z,61532.47
2023-03-16T11:10:30.366Z,61494.88
2023-03-16T11:13:05.613Z,61457.44
2023-03-16T11:15:48.765Z,61456.88
2023-03-16T11:18:30.668Z,61478.38
2023-03-16T11:21:07.803Z,61475.97
2023-03-16T11:23:48.452Z,61495.31
2023-03-16T11:26:25.269Z,61513.59
2023-03-16T11:29:02.226Z,61528.63
2023-03-16T11:31:42.783Z,61611.34
2023-03-16T11:34:19.395Z,61574.59
2023-03-16T11:36:56.109Z,61477.72
2023-03-16T11:39:41.711Z,61544.84
2023-03-16T11:42:31.744Z,61546.22
2023-03-16T11:45:11.269Z,61436.81
2023-03-16T11:48:17.102Z,61465.59
2023-03-16T11:50:59.032Z,61486.84
2023-03-16T11:53:45.526Z,61514.88
2023-03-16T11:56:25.272Z,61588.09
2023-03-16T11:59:32.973Z,61513.06
2023-03-16T12:02:37.083Z,61546.69
2023-03-16T12:05:38.205Z,61620.59
2023-03-16T12:08:25.965Z,61592.63
2023-03-16T12:11:02.615Z,61602.31
2023-03-16T12:13:52.442Z,61598.88
2023-03-16T12:16:26.146Z,61562.56
2023-03-16T12:19:01.470Z,61557.41
2023-03-16T12:21:33.596Z,61506.72
2023-03-16T12:24:04.904Z,61532.47
2023-03-16T12:26:39.905Z,61559.16
2023-03-16T12:29:21.069Z,61548.06
2023-03-16T12:31:55.881Z,61561.38
2023-03-16T12:34:32.711Z,61559.88
2023-03-16T12:37:20.704Z,61581.66
2023-03-16T12:40:27.151Z,61587.25
2023-03-16T12:43:12.459Z,61522.41
2023-03-16T12:45:48.238Z,61517.97
2023-03-16T12:48:27.202Z,61513.81
2023-03-16T12:50:58.626Z,61486.97
2023-03-16T12:53:42.212Z,61486.28
2023-03-16T12:56:13.093Z,61494.88
2023-03-16T12:58:47.280Z,61495.72
2023-03-16T13:01:19.941Z,61474.06
2023-03-16T13:03:50.935Z,61457.31
2023-03-16T13:06:23.667Z,61446.59
2023-03-16T13:08:59.714Z,61407.31
2023-03-16T13:11:29.380Z,61403.81
2023-03-16T13:14:12.761Z,61398.72
2023-03-16T13:16:41.593Z,61429.00
2023-03-16T13:19:30.492Z,61462.69
2023-03-16T13:22:06.669Z,61443.91
2023-03-16T13:24:41.050Z,61448.31
2023-03-16T13:27:23.283Z,61493.94
2023-03-16T13:29:59.087Z,61525.63
2023-03-16T13:32:33.503Z,61537.84
2023-03-16T13:35:03.630Z,61547.94
2023-03-16T13:37:32.496Z,61558.69
2023-03-16T13:40:04.488Z,61546.56
2023-03-16T13:42:34.700Z,61550.19
2023-03-16T13:45:15.700Z,61551.16
2023-03-16T13:47:46.062Z,61557.06
2023-03-16T13:50:16.393Z,61536.25
2023-03-16T13:52:54.372Z,61542.59
2023-03-16T13:55:31.349Z,61544.19
2023-03-16T13:58:01.770Z,61518.41
2023-03-16T14:00:36.845Z,61475.56
2023-03-16T14:03:17.734Z,61488.44
2023-03-16T14:05:47.557Z,61459.47
2023-03-16T14:08:18.513Z,61438.00
2023-03-16T14:10:47.633Z,61453.88
2023-03-16T14:13:34.117Z,61469.78
2023-03-16T14:16:11.956Z,61460.66
2023-03-16T14:18:43.978Z,61466.56
2023-03-16T14:21:17.735Z,61459.47
2023-03-16T14:23:48.274Z,61424.72
2023-03-16T14:26:19.810Z,61431.16
2023-03-16T14:29:02.960Z,61420.84
2023-03-16T14:31:39.824Z,61423.63
2023-03-16T14:34:22.466Z,61431.69
2023-03-16T14:36:51.193Z,61433.19
2023-03-16T14:39:22.834Z,61434.78
2023-03-16T14:41:53.094Z,61447.00
2023-03-16T14:44:24.818Z,61446.59
2023-03-16T14:46:57.058Z,61436.63
2023-03-16T14:49:29.786Z,61427.28
2023-03-16T14:52:03.359Z,61441.88
2023-03-16T14:54:32.438Z,61433.94
2023-03-16T14:57:03.864Z,61444.44
2023-03-16T14:59:32.449Z,61435.75
2023-03-16T15:02:04.287Z,61455.16
2023-03-16T15:04:36.267Z,61468.16
2023-03-16T15:07:22.784Z,61472.34
2023-03-16T15:09:53.748Z,61474.78
2023-03-16T15:12:25.097Z,61478.66
2023-03-16T15:15:11.400Z,61493.28
2023-03-16T15:17:41.184Z,61513.59
2023-03-16T15:20:12.236Z,61496.38
2023-03-16T15:22:41.880Z,61489.53
2023-03-16T15:25:24.764Z,61494.88
2023-03-16T15:27:54.330Z,61500.25
2023-03-16T15:30:26.792Z,61492.97
2023-03-16T15:32:56.693Z,61493.41
2023-03-16T15:35:25.122Z,61476.88
2023-03-16T15:37:54.106Z,61487.66
2023-03-16T15:40:26.012Z,61475.56
2023-03-16T15:42:54.705Z,61484.56
2023-03-16T15:45:24.678Z,61476.50
2023-03-16T15:47:55.231Z,61473.81
2023-03-16T15:50:25.902Z,61480.94
2023-03-16T15:52:58.217Z,61470.31
2023-03-16T15:55:34.491Z,61491.00
2023-03-16T15:58:03.789Z,61494.88
2023-03-16T16:00:35.166Z,61481.22
2023-03-16T16:03:06.565Z,61485.22
2023-03-16T16:05:36.748Z,61483.19
2023-03-16T16:08:05.661Z,61481.06
2023-03-16T16:10:35.305Z,61491.00
2023-03-16T16:13:04.184Z,61488.84
2023-03-16T16:15:36.988Z,61474.19
2023-03-16T16:18:27.819Z,61478.13
2023-03-16T16:20:58.145Z,61472.34
2023-03-16T16:23:27.408Z,61480.69
2023-03-16T16:25:58.554Z,61467.09
2023-03-16T16:28:30.864Z,61466.84
2023-03-16T16:31:01.961Z,61456.34
2023-03-16T16:33:33.242Z,61468.91
2023-03-16T16:36:05.411Z,61460.53
2023-03-16T16:38:34.317Z,61456.66
2023-03-16T16:41:06.856Z,61443.06
2023-03-16T16:43:41.272Z,61451.97
2023-03-16T16:46:16.539Z,61441.44
2023-03-16T16:48:48.168Z,61446.34
2023-03-16T16:51:20.301Z,61435.44
2023-03-16T16:53:49.294Z,61434.78
2023-03-16T16:56:19.805Z,61430.06
2023-03-16T16:58:48.339Z,61434.78
2023-03-16T17:01:23.642Z,61434.25
2023-03-16T17:03:52.442Z,61426.84
2023-03-16T17:06:22.524Z,61425.78
2023-03-16T17:08:52.389Z,61418.94
2023-03-16T17:11:24.940Z,61419.75
2023-03-16T17:13:55.385Z,61415.03
2023-03-16T17:16:25.810Z,61411.19
2023-03-16T17:18:55.307Z,61411.59
2023-03-16T17:21:29.931Z,61400.56
2023-03-16T17:24:00.349Z,61399.38
2023-03-16T17:26:32.921Z,61394.00
2023-03-16T17:29:04.059Z,61391.88
2023-03-16T17:31:36.663Z,61390.69
2023-03-16T17:34:16.828Z,61385.44
2023-03-16T17:36:46.837Z,61383.31
2023-03-16T17:39:21.007Z,61379.00
2023-03-16T17:41:52.550Z,61373.66
2023-03-16T17:44:21.733Z,61372.03
2023-03-16T17:46:50.242Z,61363.59
2023-03-16T17:49:20.020Z,61365.06
2023-03-16T17:51:49.764Z,61366.03
2023-03-16T17:54:18.722Z,61363.75
2023-03-16T17:56:48.087Z,61351.78
2023-03-16T17:59:19.295Z,61348.97
2023-03-16T18:01:48.966Z,61348.97
2023-03-16T18:04:19.051Z,61351.97
2023-03-16T18:06:48.133Z,61344.81
2023-03-16T18:09:19.827Z,61343.09
2023-03-16T18:11:50.973Z,61332.91
2023-03-16T18:14:34.910Z,61336.00
2023-03-16T18:17:04.179Z,61330.13
2023-03-16T18:19:33.736Z,61326.91
2023-03-16T18:22:02.061Z,61317.47
2023-03-16T18:24:31.882Z,61325.28
2023-03-16T18:27:00.431Z,61318.03
2023-03-16T18:29:28.811Z,61318.31
2023-03-16T18:31:58.288Z,61326.91
2023-03-16T18:34:33.620Z,61323.81
2023-03-16T18:37:06.194Z,61318.44
2023-03-16T18:39:36.039Z,61315.09
2023-03-16T18:42:04.752Z,61304.63
2023-03-16T18:44:33.726Z,61306.66
2023-03-16T18:47:04.438Z,61302.88
2023-03-16T18:49:35.870Z,61296.56
2023-03-16T18:52:07.263Z,61297.00
2023-03-16T18:54:39.064Z,61290.25
2023-03-16T18:57:16.477Z,61295.38
2023-03-16T18:59:44.838Z,61285.31
2023-03-16T19:02:29.544Z,61285.22
2023-03-16T19:05:01.785Z,61280.50
2023-03-16T19:07:35.945Z,61275.66
2023-03-16T19:10:20.298Z,61275.00
2023-03-16T19:12:48.880Z,61274.59
2023-03-16T19:15:21.160Z,61283.47
2023-03-16T19:17:50.327Z,61270.88
2023-03-16T19:20:22.197Z,61262.41
2023-03-16T19:22:52.154Z,61262.81
2023-03-16T19:25:29.142Z,61269.13
2023-03-16T19:27:58.334Z,61262.81
2023-03-16T19:30:28.656Z,61264.19
2023-03-16T19:32:59.140Z,61265.13
2023-03-16T19:35:48.454Z,61252.09
2023-03-16T19:38:19.347Z,61249.97
2023-03-16T19:40:50.835Z,61249.97
2023-03-16T19:43:21.333Z,61245.28
2023-03-16T19:45:50.166Z,61249.72
2023-03-16T19:48:22.730Z,61245.69
2023-03-16T19:50:52.176Z,61241.94
2023-03-16T19:53:22.476Z,61244.38
2023-03-16T19:55:54.655Z,61235.50
2023-03-16T19:58:32.125Z,61239.66
2023-03-16T20:01:02.182Z,61241.56
2023-03-16T20:03:34.174Z,61231.78
2023-03-16T20:06:02.531Z,61234.34
2023-03-16T20:08:31.140Z,61227.88
2023-03-16T20:11:04.508Z,61227.25
2023-03-16T20:13:33.477Z,61224.69
2023-03-16T20:16:02.133Z,61222.56
2023-03-16T20:18:30.626Z,61220.94
2023-03-16T20:20:59.276Z,61222.97
2023-03-16T20:23:30.227Z,61217.31
2023-03-16T20:26:03.017Z,61216.94
2023-03-16T20:28:36.841Z,61214.50
2023-03-16T20:31:08.438Z,61206.47
2023-03-16T20:33:37.139Z,61210.22
2023-03-16T20:36:06.985Z,61214.41
2023-03-16T20:38:35.473Z,61199.66
2023-03-16T20:41:13.255Z,61200.06
2023-03-16T20:43:41.823Z,61199.00
2023-03-16T20:46:18.682Z,61194.81
2023-03-16T20:48:47.315Z,61194.16
2023-03-16T20:51:17.233Z,61194.69
2023-03-16T20:53:46.657Z,61189.47
2023-03-16T20:56:18.266Z,61194.69
2023-03-16T20:58:48.081Z,61193.00
2023-03-16T21:01:20.939Z,61198.50
2023-03-16T21:03:52.169Z,61182.13
2023-03-16T21:06:25.897Z,61172.91
2023-03-16T21:08:56.825Z,61179.06
2023-03-16T21:11:30.836Z,61175.03
2023-03-16T21:13:59.411Z,61174.78
2023-03-16T21:16:28.041Z,61173.84
2023-03-16T21:18:56.586Z,61166.34
2023-03-16T21:21:25.474Z,61170.09
2023-03-16T21:23:54.160Z,61164.22
2023-03-16T21:26:27.144Z,61167.41
2023-03-16T21:28:58.933Z,61167.94
2023-03-16T21:31:28.254Z,61160.47
2023-03-16T21:33:57.603Z,61165.81
2023-03-16T21:36:27.323Z,61157.25
2023-03-16T21:38:57.735Z,61160.47
2023-03-16T21:41:27.695Z,61155.13
2023-03-16T21:43:56.248Z,61154.16
2023-03-16T21:46:26.474Z,61155.66
2023-03-16T21:48:56.930Z,61150.00
2023-03-16T21:51:31.282Z,61150.81
2023-03-16T21:54:01.664Z,61151.78
2023-03-16T21:56:31.589Z,61148.69
2023-03-16T21:59:00.741Z,61149.22
2023-03-16T22:01:32.357Z,61144.94
2023-03-16T22:04:06.613Z,61142.81
2023-03-16T22:06:35.285Z,61138.66
2023-03-16T22:09:04.378Z,61141.59
2023-03-16T22:11:34.434Z,61136.94
2023-03-16T22:14:02.973Z,61137.34
2023-03-16T22:16:36.079Z,61131.56
2023-03-16T22:19:06.010Z,61133.16
2023-03-16T22:21:37.510Z,61128.59
2023-03-16T22:24:08.455Z,61131.97
2023-03-16T22:26:38.459Z,61126.22
2023-03-16T22:29:23.378Z,61122.59
2023-03-16T22:31:55.394Z,61122.47
2023-03-16T22:34:32.209Z,61124.63
2023-03-16T22:37:01.933Z,61122.47
2023-03-16T22:39:39.647Z,61120.47
2023-03-16T22:42:28.472Z,61113.09
2023-03-16T22:44:57.433Z,61114.56
2023-03-16T22:47:28.231Z,61108.69
2023-03-16T22:49:56.979Z,61114.44
2023-03-16T22:52:30.322Z,61112.84
2023-03-16T22:54:59.500Z,61112.75
2023-03-16T22:57:30.491Z,61113.38
2023-03-16T23:00:00.714Z,61110.19
2023-03-16T23:02:30.583Z,61109.63
2023-03-16T23:04:59.103Z,61109.09
2023-03-16T23:07:27.591Z,61108.03
2023-03-16T23:09:56.022Z,61101.19
2023-03-16T23:12:24.381Z,61106.97
2023-03-16T23:14:54.189Z,61101.19
2023-03-16T23:17:23.795Z,61152.97
2023-03-16T23:19:52.610Z,61166.88
2023-03-16T23:22:21.029Z,61129.44
2023-03-16T23:24:49.393Z,61111.38
2023-03-16T23:27:21.406Z,61109.63
2023-03-16T23:29:50.228Z,61103.34
2023-03-16T23:32:20.056Z,61108.31
2023-03-16T23:34:48.484Z,61105.25
2023-03-16T23:37:17.477Z,61092.00
2023-03-16T23:39:45.905Z,61096.28
2023-03-16T23:42:14.307Z,61097.88
2023-03-16T23:44:43.514Z,61096.28
2023-03-16T23:47:12.624Z,61095.75
2023-03-16T23:49:43.757Z,61090.38
2023-03-16T23:52:14.594Z,61098.41
2023-03-16T23:54:43.374Z,61092.66
2023-03-16T23:57:12.148Z,61093.06
2023-03-16T23:59:40.523Z,61086.91
